Time;durP1;ratioP1;P1;durP2;ratioP2;P2;SDS_P1;SDS_P2;PMS_P1;PMS_P2;Temp;Humidity;BMP_temperature;BMP_pressure;BME280_temperature;BME280_humidity;BME280_pressure;Samples;Min_cycle;Max_cycle;Signal;HPM_P1;HPM_P2
2022/10/28 00:01:15;;;;;;;37.37;34.87;;;;;;;18.35;65.72;101620.97;4978253;28;20026;-73
2022/10/28 00:03:44;;;;;;;36.53;34.30;;;;;;;18.34;65.93;101617.44;4977998;28;20506;-74
2022/10/28 00:06:16;;;;;;;37.65;35.47;;;;;;;18.33;66.15;101615.75;4977327;28;20050;-73
2022/10/28 00:08:41;;;;;;;38.30;35.33;;;;;;;18.32;65.60;101618.75;4978446;28;20038;-72
2022/10/28 00:11:13;;;;;;;38.30;35.47;;;;;;;18.32;65.67;101621.50;4976227;28;20035;-73
2022/10/28 00:13:40;;;;;;;36.50;34.40;;;;;;;18.29;66.07;101622.88;4976223;28;20082;-74
2022/10/28 00:16:13;;;;;;;37.17;34.92;;;;;;;18.30;65.75;101618.25;4977376;28;20027;-72
2022/10/28 00:18:39;;;;;;;35.50;33.45;;;;;;;18.28;65.77;101623.97;4977474;28;20035;-71
2022/10/28 00:21:08;;;;;;;36.70;34.38;;;;;;;18.27;66.04;101624.22;4977800;28;20045;-73
2022/10/28 00:23:33;;;;;;;35.88;33.58;;;;;;;18.27;65.96;101629.69;4976154;28;20027;-71
2022/10/28 00:26:10;;;;;;;36.70;34.60;;;;;;;18.27;65.66;101621.50;4977298;28;20038;-79
2022/10/28 00:28:44;;;;;;;36.67;33.67;;;;;;;18.26;65.48;101636.28;4977363;28;20027;-75
2022/10/28 00:31:11;;;;;;;35.92;33.53;;;;;;;18.25;65.68;101629.19;4976223;28;20031;-73
2022/10/28 00:33:37;;;;;;;35.75;33.42;;;;;;;18.23;65.50;101626.69;4976653;28;20098;-73
2022/10/28 00:36:07;;;;;;;37.15;34.42;;;;;;;18.22;65.57;101627.81;4959715;28;20058;-73
2022/10/28 00:38:32;;;;;;;35.28;33.20;;;;;;;18.21;65.83;101619.88;4975840;28;20027;-73
2022/10/28 00:40:58;;;;;;;35.75;32.63;;;;;;;18.21;65.46;101612.47;4977543;28;20431;-75
2022/10/28 00:43:40;;;;;;;36.03;33.65;;;;;;;18.20;65.73;101615.50;4960129;28;20089;-72
2022/10/28 00:46:14;;;;;;;36.15;33.85;;;;;;;18.19;65.90;101608.38;4977658;28;20108;-73
2022/10/28 00:48:43;;;;;;;34.95;32.58;;;;;;;18.17;65.61;101601.28;4977541;28;20027;-74
2022/10/28 00:51:08;;;;;;;36.10;33.88;;;;;;;18.16;65.37;101599.63;4976734;28;20055;-75
2022/10/28 00:53:35;;;;;;;36.85;34.17;;;;;;;18.16;65.78;101585.94;4959532;28;20090;-74
2022/10/28 00:56:02;;;;;;;36.78;34.15;;;;;;;18.15;65.30;101592.53;4975900;28;20051;-77
2022/10/28 00:58:28;;;;;;;35.92;33.88;;;;;;;18.14;65.88;101590.91;4959907;28;20077;-73
2022/10/28 01:00:54;;;;;;;37.92;35.50;;;;;;;18.12;65.79;101590.34;4976701;28;20035;-72
2022/10/28 01:03:20;;;;;;;36.85;34.17;;;;;;;18.12;65.61;101593.06;4975304;28;20410;-73
2022/10/28 01:05:47;;;;;;;34.67;32.50;;;;;;;18.11;65.48;101591.41;4975443;28;20113;-72
2022/10/28 01:08:14;;;;;;;35.67;33.13;;;;;;;18.10;65.81;101592.53;4976445;28;20069;-72
2022/10/28 01:10:48;;;;;;;35.55;33.15;;;;;;;18.09;65.54;101588.16;4976764;28;20084;-73
2022/10/28 01:13:37;;;;;;;36.33;33.95;;;;;;;18.08;65.27;101582.94;4976129;28;20073;-73
2022/10/28 01:16:21;;;;;;;35.65;33.38;;;;;;;18.06;65.65;101580.47;4976380;28;20031;-77
2022/10/28 01:18:55;;;;;;;37.10;34.42;;;;;;;18.06;65.87;101590.59;4975619;28;20058;-72
2022/10/28 01:21:56;;;;;;;35.22;32.83;;;;;;;18.03;65.62;101581.03;4975266;28;20113;-73
2022/10/28 01:24:43;;;;;;;36.80;34.60;;;;;;;18.01;65.70;101577.75;4975194;28;20443;-72
2022/10/28 01:27:44;;;;;;;36.63;33.92;;;;;;;18.00;65.36;101576.09;4976075;28;20476;-72
2022/10/28 01:30:20;;;;;;;34.20;32.30;;;;;;;17.99;65.72;101570.91;4916624;29;20032;-74
2022/10/28 01:32:49;;;;;;;35.65;33.65;;;;;;;17.97;65.52;101563.00;4967989;28;20487;-74
2022/10/28 01:35:33;;;;;;;38.97;36.47;;;;;;;17.97;65.26;101560.25;4974727;28;20034;-74
2022/10/28 01:38:38;;;;;;;36.28;33.97;;;;;;;17.95;65.68;101563.25;4976090;28;20031;-71
2022/10/28 01:41:10;;;;;;;35.60;33.15;;;;;;;17.94;65.66;101564.34;4976177;28;20034;-77
2022/10/28 01:43:43;;;;;;;37.30;34.97;;;;;;;17.93;65.33;101567.34;4974196;28;20027;-72
2022/10/28 01:46:15;;;;;;;34.65;32.50;;;;;;;17.92;65.71;101563.00;4975564;28;20035;-74
2022/10/28 01:48:51;;;;;;;33.70;31.50;;;;;;;17.90;65.42;101570.63;4975858;28;20038;-73
2022/10/28 01:51:32;;;;;;;35.10;32.97;;;;;;;17.88;65.15;101565.44;4975788;28;20047;-72
2022/10/28 01:54:01;;;;;;;34.55;32.00;;;;;;;17.88;65.32;101570.09;4975770;28;20081;-72
2022/10/28 01:56:31;;;;;;;33.88;31.67;;;;;;;17.87;65.30;101568.44;4975787;28;20027;-73
2022/10/28 01:58:59;;;;;;;35.15;32.88;;;;;;;17.83;65.43;101562.69;4975424;28;20062;-74
2022/10/28 02:01:27;;;;;;;33.60;31.27;;;;;;;17.83;65.73;101561.88;4975438;28;20058;-73
2022/10/28 02:03:54;;;;;;;35.72;33.70;;;;;;;17.81;65.24;101564.88;4975006;28;20037;-75
2022/10/28 02:06:22;;;;;;;36.72;34.13;;;;;;;17.80;65.12;101557.78;4975436;28;20571;-73
2022/10/28 02:09:03;;;;;;;35.00;32.50;;;;;;;17.79;65.29;101555.28;4974979;28;20368;-72
2022/10/28 02:12:02;;;;;;;34.60;32.13;;;;;;;17.78;65.55;101572.78;4975573;28;20030;-72
2022/10/28 02:14:30;;;;;;;35.90;33.90;;;;;;;17.76;65.16;101564.00;4975400;28;20487;-71
2022/10/28 02:17:03;;;;;;;33.80;31.80;;;;;;;17.73;65.19;101566.19;4974832;28;20062;-76
2022/10/28 02:20:06;;;;;;;34.55;32.35;;;;;;;17.72;65.17;101569.22;4975548;28;20026;-73
2022/10/28 02:22:36;;;;;;;32.83;30.95;;;;;;;17.71;65.39;101556.63;4976026;28;20470;-73
2022/10/28 02:25:10;;;;;;;34.45;32.55;;;;;;;17.68;65.64;101558.00;4975164;28;20115;-74
2022/10/28 02:27:58;;;;;;;34.95;32.60;;;;;;;17.68;65.45;101559.91;4975138;28;20367;-73
2022/10/28 02:30:51;;;;;;;36.72;34.42;;;;;;;17.65;65.69;101550.34;4974999;28;20059;-72
2022/10/28 02:33:22;;;;;;;34.78;32.20;;;;;;;17.65;65.17;101560.44;4968740;28;20072;-72
2022/10/28 02:35:52;;;;;;;32.63;30.48;;;;;;;17.63;65.53;101557.97;4975548;28;20031;-72
2022/10/28 02:38:23;;;;;;;35.38;33.05;;;;;;;17.62;65.14;101561.81;4973707;28;20094;-73
2022/10/28 02:40:55;;;;;;;34.55;32.00;;;;;;;17.61;65.11;101553.88;4975529;28;20035;-72
2022/10/28 02:43:24;;;;;;;33.35;31.45;;;;;;;17.60;65.56;101558.53;4975204;28;20065;-73
2022/10/28 02:45:54;;;;;;;33.95;31.95;;;;;;;17.58;65.53;101560.69;4975374;28;20105;-72
2022/10/28 02:48:29;;;;;;;36.17;33.88;;;;;;;17.57;65.23;101548.16;4974505;28;20031;-72
2022/10/28 02:51:06;;;;;;;33.50;31.10;;;;;;;17.55;65.14;101550.31;4975032;28;20058;-73
2022/10/28 02:53:41;;;;;;;32.40;29.98;;;;;;;17.54;65.26;101543.22;4974783;28;20121;-71
2022/10/28 02:56:09;;;;;;;32.28;30.27;;;;;;;17.53;65.06;101545.13;4973704;28;20067;-79
2022/10/28 02:58:39;;;;;;;32.80;30.08;;;;;;;17.52;65.33;101543.47;4974237;28;20117;-76
2022/10/28 03:01:06;;;;;;;32.90;30.95;;;;;;;17.50;65.19;101553.03;4973544;28;20486;-73
2022/10/28 03:03:31;;;;;;;33.80;31.45;;;;;;;17.49;65.44;101549.50;4974146;28;20046;-75
2022/10/28 03:05:56;;;;;;;33.00;31.00;;;;;;;17.48;65.13;101553.31;4973556;28;20058;-73
2022/10/28 03:08:24;;;;;;;34.17;31.98;;;;;;;17.48;65.20;101549.75;4974623;28;20058;-73
2022/10/28 03:10:49;;;;;;;32.03;30.20;;;;;;;17.47;65.11;101557.13;4974177;28;20459;-72
2022/10/28 03:13:15;;;;;;;36.40;33.60;;;;;;;17.46;65.17;101551.94;4973892;28;20123;-72
2022/10/28 03:15:40;;;;;;;33.33;30.92;;;;;;;17.45;65.32;101544.84;4957764;28;20027;-74
2022/10/28 03:18:05;;;;;;;35.80;33.38;;;;;;;17.43;65.50;101545.09;4974587;28;20073;-73
2022/10/28 03:20:31;;;;;;;31.67;29.95;;;;;;;17.42;65.04;101540.72;4973499;28;20210;-74
2022/10/28 03:22:56;;;;;;;32.85;30.63;;;;;;;17.42;65.09;101542.66;4974293;28;20039;-72
2022/10/28 03:25:21;;;;;;;35.30;32.45;;;;;;;17.41;65.25;101538.25;4957074;28;20463;-72
2022/10/28 03:27:47;;;;;;;32.85;30.75;;;;;;;17.40;65.24;101539.34;4941474;28;20463;-73
2022/10/28 03:30:13;;;;;;;35.63;33.00;;;;;;;17.38;65.28;101527.88;4973222;28;20074;-77
2022/10/28 03:32:41;;;;;;;33.88;31.50;;;;;;;17.38;65.44;101536.06;4973223;28;20035;-75
2022/10/28 03:35:07;;;;;;;34.13;31.83;;;;;;;17.37;64.83;101531.72;4972976;28;20034;-72
2022/10/28 03:37:32;;;;;;;33.80;31.45;;;;;;;17.35;65.03;101534.69;4973377;28;20035;-74
2022/10/28 03:40:01;;;;;;;32.13;30.13;;;;;;;17.35;65.10;101536.63;4973198;28;20073;-73
2022/10/28 03:42:26;;;;;;;34.35;31.73;;;;;;;17.34;65.54;101532.22;4973078;28;20121;-74
2022/10/28 03:44:52;;;;;;;32.28;30.48;;;;;;;17.32;65.33;101526.22;4974843;28;20073;-72
2022/10/28 03:47:17;;;;;;;33.30;31.17;;;;;;;17.32;65.20;101535.25;4974292;28;20034;-73
2022/10/28 03:49:42;;;;;;;33.85;31.40;;;;;;;17.30;65.09;101531.94;4972769;28;20061;-73
2022/10/28 03:52:08;;;;;;;34.90;32.08;;;;;;;17.29;65.23;101533.88;4956742;28;20174;-73
2022/10/28 03:54:33;;;;;;;35.30;32.67;;;;;;;17.28;65.33;101532.22;4972709;28;20429;-73
2022/10/28 03:56:59;;;;;;;34.40;31.92;;;;;;;17.28;65.03;101536.84;4957171;28;20081;-73
2022/10/28 03:59:24;;;;;;;33.88;31.65;;;;;;;17.26;65.94;101541.75;4973091;28;20074;-73
2022/10/28 04:01:49;;;;;;;35.25;32.38;;;;;;;17.25;65.33;101532.75;4974720;28;20046;-74
2022/10/28 04:04:15;;;;;;;35.13;32.78;;;;;;;17.24;65.60;101535.78;4941090;28;20038;-75
2022/10/28 04:06:40;;;;;;;33.75;31.63;;;;;;;17.23;65.61;101542.31;4975521;28;20027;-73
2022/10/28 04:09:05;;;;;;;33.20;31.00;;;;;;;17.21;65.19;101539.84;4977899;28;20146;-73
2022/10/28 04:11:31;;;;;;;34.00;31.48;;;;;;;17.21;65.15;101539.84;4976612;28;20052;-72
2022/10/28 04:13:56;;;;;;;33.03;31.00;;;;;;;17.20;65.33;101538.19;4976401;28;20057;-73
2022/10/28 04:16:21;;;;;;;35.15;32.97;;;;;;;17.19;65.75;101536.56;4975955;28;20062;-74
2022/10/28 04:18:47;;;;;;;33.40;30.88;;;;;;;17.18;65.40;101534.91;4977471;28;20031;-74
2022/10/28 04:21:12;;;;;;;31.55;29.58;;;;;;;17.19;65.56;101533.03;4960267;28;20041;-73
2022/10/28 04:23:38;;;;;;;31.98;30.00;;;;;;;17.17;65.34;101533.28;4976432;28;20031;-73
2022/10/28 04:26:03;;;;;;;32.53;30.05;;;;;;;17.16;65.42;101533.53;4976205;28;20050;-73
2022/10/28 04:28:29;;;;;;;35.53;33.30;;;;;;;17.16;65.84;101539.00;4975755;28;20035;-73
2022/10/28 04:30:54;;;;;;;32.40;30.45;;;;;;;17.15;66.18;101535.44;4975853;28;20070;-72
2022/10/28 04:33:20;;;;;;;33.10;31.15;;;;;;;17.14;65.47;101531.09;4976042;28;20057;-74
2022/10/28 04:35:45;;;;;;;33.53;31.00;;;;;;;17.13;65.86;101534.88;4977201;28;20023;-72
2022/10/28 04:38:11;;;;;;;33.83;31.70;;;;;;;17.12;65.66;101529.72;4959795;28;20383;-73
2022/10/28 04:40:36;;;;;;;36.72;34.35;;;;;;;17.11;65.57;101530.78;4975681;28;20042;-73
2022/10/28 04:43:02;;;;;;;35.58;33.45;;;;;;;17.10;65.67;101535.44;4975712;28;20038;-73
2022/10/28 04:45:27;;;;;;;33.00;30.92;;;;;;;17.09;65.60;101533.81;4975881;28;20062;-73
2022/10/28 04:48:00;;;;;;;32.20;30.15;;;;;;;17.08;65.59;101529.41;4976965;28;20031;-75
2022/10/28 04:50:26;;;;;;;33.17;31.08;;;;;;;17.07;65.71;101525.88;4976597;28;20042;-73
2022/10/28 04:52:52;;;;;;;33.05;30.98;;;;;;;17.07;65.75;101523.13;4977314;28;20043;-73
2022/10/28 04:55:18;;;;;;;32.95;30.77;;;;;;;17.06;65.84;101520.69;4975566;28;20094;-73
2022/10/28 04:58:04;;;;;;;32.35;30.45;;;;;;;17.05;65.52;101527.22;4976482;28;20031;-74
2022/10/28 05:00:29;;;;;;;35.05;32.17;;;;;;;17.04;66.12;101522.88;4958957;28;20047;-73
2022/10/28 05:02:55;;;;;;;32.08;30.00;;;;;;;17.03;66.13;101523.94;4976376;28;20502;-71
2022/10/28 05:05:21;;;;;;;32.53;30.52;;;;;;;17.03;65.99;101532.97;4975682;28;20035;-74
2022/10/28 05:07:46;;;;;;;33.47;30.70;;;;;;;17.02;65.97;101525.84;4976568;28;20034;-73
2022/10/28 05:10:14;;;;;;;32.33;29.98;;;;;;;17.01;65.94;101524.22;4975257;28;20027;-71
2022/10/28 05:12:44;;;;;;;34.65;32.08;;;;;;;17.01;66.02;101520.66;4975187;28;20038;-71
2022/10/28 05:15:10;;;;;;;36.20;33.25;;;;;;;16.99;65.64;101522.84;4976973;28;20121;-73
2022/10/28 05:17:40;;;;;;;32.80;30.38;;;;;;;16.98;66.13;101535.66;4974717;28;20057;-74
2022/10/28 05:20:06;;;;;;;32.60;30.60;;;;;;;16.98;65.91;101535.66;4976268;28;20154;-74
2022/10/28 05:22:32;;;;;;;35.53;33.08;;;;;;;16.98;65.90;101532.09;4974610;28;20118;-74
2022/10/28 05:24:57;;;;;;;32.35;29.85;;;;;;;16.97;65.91;101534.00;4975155;28;20162;-72
2022/10/28 05:27:23;;;;;;;32.58;30.38;;;;;;;16.97;66.06;101530.47;4975655;28;20089;-76
2022/10/28 05:29:48;;;;;;;32.63;30.13;;;;;;;16.95;65.71;101529.91;4976163;28;20058;-71
2022/10/28 05:32:13;;;;;;;30.73;28.73;;;;;;;16.96;65.68;101526.09;4974766;28;20034;-73
2022/10/28 05:34:39;;;;;;;33.53;31.38;;;;;;;16.95;66.04;101527.19;4958710;28;20037;-73
2022/10/28 05:37:04;;;;;;;32.95;30.83;;;;;;;16.94;65.64;101514.63;4974893;28;20444;-73
2022/10/28 05:39:29;;;;;;;33.03;30.73;;;;;;;16.93;65.80;101521.16;4975874;28;20090;-71
2022/10/28 05:41:55;;;;;;;32.25;29.65;;;;;;;16.92;65.89;101511.34;4975262;28;20046;-72
2022/10/28 05:44:20;;;;;;;32.08;29.75;;;;;;;16.92;66.19;101506.72;4958623;28;20035;-73
2022/10/28 05:46:45;;;;;;;32.47;30.33;;;;;;;16.90;65.69;101506.16;4976015;28;20114;-72
2022/10/28 05:49:11;;;;;;;33.15;30.65;;;;;;;16.90;65.70;101505.31;4976075;28;20030;-74
2022/10/28 05:51:36;;;;;;;32.97;30.63;;;;;;;16.90;65.72;101505.31;4975591;28;20055;-73
2022/10/28 05:54:01;;;;;;;33.05;30.88;;;;;;;16.88;65.65;101505.59;4975953;28;20041;-72
2022/10/28 05:56:27;;;;;;;33.22;31.13;;;;;;;16.89;65.81;101511.88;4975852;28;20458;-72
2022/10/28 05:58:52;;;;;;;34.65;31.75;;;;;;;16.88;65.60;101513.78;4974464;28;20031;-72
2022/10/28 06:01:17;;;;;;;32.05;29.88;;;;;;;16.86;65.90;101511.31;4975085;28;20035;-72
2022/10/28 06:03:43;;;;;;;31.63;29.60;;;;;;;16.86;65.59;101529.63;4974010;28;20042;-73
2022/10/28 06:06:08;;;;;;;32.53;30.48;;;;;;;16.86;65.98;101518.69;4975538;28;20467;-73
2022/10/28 06:08:33;;;;;;;35.80;32.80;;;;;;;16.84;66.12;101516.22;4975394;28;20383;-73
2022/10/28 06:11:00;;;;;;;33.97;31.42;;;;;;;16.84;65.89;101529.06;4975686;28;20037;-74
2022/10/28 06:13:25;;;;;;;33.33;31.02;;;;;;;16.84;65.87;101520.88;4974118;28;20031;-77
2022/10/28 06:15:52;;;;;;;33.15;31.05;;;;;;;16.83;65.90;101521.94;4958073;28;20038;-73
2022/10/28 06:18:17;;;;;;;30.92;28.83;;;;;;;16.83;65.94;101517.31;4975343;28;20106;-72
2022/10/28 06:20:43;;;;;;;32.83;30.75;;;;;;;16.82;66.17;101517.56;4975222;28;20058;-72
2022/10/28 06:23:08;;;;;;;31.25;29.45;;;;;;;16.81;66.04;101519.50;4974020;28;20102;-73
2022/10/28 06:25:33;;;;;;;32.67;30.38;;;;;;;16.80;65.70;101520.56;4975141;28;20463;-72
2022/10/28 06:28:01;;;;;;;32.97;30.23;;;;;;;16.79;66.09;101524.38;4973964;28;20118;-72
2022/10/28 06:30:27;;;;;;;31.10;28.77;;;;;;;16.78;66.10;101522.75;4958647;28;20042;-76
2022/10/28 06:32:58;;;;;;;30.15;27.98;;;;;;;16.78;66.09;101519.19;4974658;28;20123;-70
2022/10/28 06:35:23;;;;;;;32.50;30.33;;;;;;;16.78;65.96;101525.47;4974211;28;20035;-73
2022/10/28 06:37:53;;;;;;;33.20;30.95;;;;;;;16.78;66.02;101519.19;4957693;28;20046;-72
2022/10/28 06:40:19;;;;;;;31.70;29.65;;;;;;;16.76;66.17;101515.88;4975536;28;20039;-74
2022/10/28 06:42:44;;;;;;;35.15;32.72;;;;;;;16.75;65.86;101517.78;4973865;28;20089;-72
2022/10/28 06:45:10;;;;;;;33.10;30.35;;;;;;;16.76;65.69;101515.88;4973691;28;20486;-73
2022/10/28 06:47:35;;;;;;;34.63;31.92;;;;;;;16.73;66.14;101511.78;4974813;28;20035;-73
2022/10/28 06:50:00;;;;;;;32.88;30.60;;;;;;;16.74;65.98;101518.88;4973857;28;20039;-73
2022/10/28 06:52:26;;;;;;;34.08;31.40;;;;;;;16.73;66.13;101519.13;4973538;28;20046;-72
2022/10/28 06:54:51;;;;;;;33.35;31.10;;;;;;;16.72;66.14;101518.31;4973620;28;20039;-73
2022/10/28 06:57:17;;;;;;;32.22;29.83;;;;;;;16.71;65.86;101504.94;4973617;28;20035;-75
2022/10/28 06:59:42;;;;;;;34.65;31.67;;;;;;;16.71;66.06;101508.50;4973507;28;20029;-73
2022/10/28 07:02:10;;;;;;;31.77;29.42;;;;;;;16.71;65.96;101513.13;4975562;28;20039;-73
2022/10/28 07:04:36;;;;;;;32.67;30.58;;;;;;;16.69;65.84;101518.84;4975119;28;20034;-73
2022/10/28 07:07:01;;;;;;;32.17;29.48;;;;;;;16.69;66.10;101520.75;4958018;28;20039;-72
2022/10/28 07:09:26;;;;;;;31.55;29.42;;;;;;;16.69;66.02;101520.75;4973480;28;20035;-71
2022/10/28 07:11:52;;;;;;;31.05;28.75;;;;;;;16.67;66.20;101523.75;4974480;28;20069;-74
2022/10/28 07:14:17;;;;;;;33.38;31.23;;;;;;;16.67;66.13;101523.75;4974587;28;20034;-74
2022/10/28 07:16:43;;;;;;;33.38;31.08;;;;;;;16.66;66.41;101528.38;4956893;28;20039;-73
2022/10/28 07:19:08;;;;;;;32.22;29.98;;;;;;;16.66;66.30;101533.03;4973751;28;20045;-73
2022/10/28 07:21:34;;;;;;;33.35;30.55;;;;;;;16.67;66.07;101540.09;4973515;28;20035;-73
2022/10/28 07:24:00;;;;;;;32.17;30.08;;;;;;;16.66;66.08;101535.75;4974516;28;20035;-73
2022/10/28 07:26:25;;;;;;;32.95;30.35;;;;;;;16.65;66.20;101540.34;4974518;28;20043;-73
2022/10/28 07:28:51;;;;;;;33.10;30.27;;;;;;;16.65;66.23;101534.91;4974443;28;20031;-73
2022/10/28 07:31:17;;;;;;;31.88;29.83;;;;;;;16.64;66.19;101536.00;4974381;28;20030;-72
2022/10/28 07:33:42;;;;;;;34.00;30.83;;;;;;;16.64;66.53;101536.00;4974360;28;20071;-73
2022/10/28 07:36:09;;;;;;;34.55;31.85;;;;;;;16.64;66.64;101537.91;4974369;28;20181;-72
2022/10/28 07:38:34;;;;;;;33.00;30.48;;;;;;;16.64;66.79;101535.19;4973282;28;20035;-76
2022/10/28 07:41:07;;;;;;;32.63;30.15;;;;;;;16.63;66.82;101538.97;4975321;28;20452;-73
2022/10/28 07:43:37;;;;;;;31.83;29.92;;;;;;;16.62;66.57;101527.25;4978142;28;20063;-75
2022/10/28 07:46:04;;;;;;;33.45;30.77;;;;;;;16.62;66.52;101524.53;4978515;28;20050;-72
2022/10/28 07:48:30;;;;;;;33.25;29.23;;;;;;;16.62;66.74;101520.97;4978057;28;20109;-73
2022/10/28 07:50:59;;;;;;;32.53;30.48;;;;;;;16.61;67.02;101520.16;4977935;28;20092;-73
2022/10/28 07:53:24;;;;;;;33.42;31.02;;;;;;;16.62;67.16;101526.44;4960437;28;20042;-73
2022/10/28 07:55:54;;;;;;;36.20;33.65;;;;;;;16.63;66.82;101525.34;4976989;28;20035;-73
2022/10/28 07:58:20;;;;;;;33.40;31.13;;;;;;;16.63;67.29;101528.06;4978336;28;20038;-72
2022/10/28 08:00:45;;;;;;;31.60;29.55;;;;;;;16.62;66.89;101529.16;4976444;28;20035;-72
2022/10/28 08:03:10;;;;;;;34.15;31.65;;;;;;;16.62;67.25;101535.44;4976846;28;20122;-73
2022/10/28 08:05:36;;;;;;;33.28;30.85;;;;;;;16.63;67.39;101533.53;4960633;28;20471;-73
2022/10/28 08:08:01;;;;;;;31.48;29.35;;;;;;;16.63;67.17;101533.53;4959900;28;20118;-73
2022/10/28 08:10:26;;;;;;;31.73;29.77;;;;;;;16.63;67.24;101541.72;4960710;28;20073;-72
2022/10/28 08:12:55;;;;;;;34.55;32.13;;;;;;;16.63;67.33;101549.88;4976197;28;20475;-72
2022/10/28 08:15:22;;;;;;;35.47;32.65;;;;;;;16.63;67.25;101548.00;4977555;28;20493;-73
2022/10/28 08:17:51;;;;;;;33.83;31.10;;;;;;;16.64;67.03;101548.81;4960490;28;20386;-73
2022/10/28 08:20:17;;;;;;;31.23;29.00;;;;;;;16.64;67.22;101548.81;4977491;28;20055;-73
2022/10/28 08:22:42;;;;;;;31.45;29.10;;;;;;;16.65;67.31;101551.28;4977878;28;20038;-72
2022/10/28 08:25:08;;;;;;;31.70;29.40;;;;;;;16.67;67.08;101564.66;4977365;28;20031;-72
2022/10/28 08:27:33;;;;;;;32.88;30.67;;;;;;;16.66;66.89;101555.66;4960447;28;20031;-71
2022/10/28 08:29:59;;;;;;;31.58;29.27;;;;;;;16.67;67.13;101557.28;4976024;28;20472;-71
2022/10/28 08:32:26;;;;;;;31.27;29.27;;;;;;;16.67;66.95;101551.84;4975839;28;20031;-71
2022/10/28 08:34:52;;;;;;;30.55;28.65;;;;;;;16.67;67.24;101545.56;4976446;28;20047;-71
2022/10/28 08:37:17;;;;;;;31.08;29.17;;;;;;;16.69;67.48;101553.50;4960583;28;20049;-71
2022/10/28 08:39:43;;;;;;;32.67;30.67;;;;;;;16.70;67.19;101555.94;4977269;28;20494;-71
2022/10/28 08:42:29;;;;;;;32.38;29.27;;;;;;;16.71;67.30;101543.97;4975776;28;20178;-72
2022/10/28 08:45:03;;;;;;;31.90;29.60;;;;;;;16.72;67.53;101548.31;4977484;28;20023;-72
2022/10/28 08:47:43;;;;;;;31.65;29.27;;;;;;;16.78;67.75;101538.28;4977241;28;20506;-71
2022/10/28 08:50:13;;;;;;;32.40;29.83;;;;;;;16.85;67.67;101550.59;4976993;28;20041;-74
2022/10/28 08:52:58;;;;;;;32.55;30.35;;;;;;;16.96;67.81;101556.09;4976343;28;20352;-74
2022/10/28 08:55:29;;;;;;;32.70;30.25;;;;;;;17.05;67.68;101549.06;4976836;28;20074;-72
2022/10/28 08:58:01;;;;;;;33.33;31.13;;;;;;;17.08;67.85;101552.09;4976728;28;20035;-73
2022/10/28 09:00:29;;;;;;;33.08;30.33;;;;;;;17.09;67.67;101551.00;4975734;28;20049;-72
2022/10/28 09:03:14;;;;;;;35.20;32.20;;;;;;;17.10;67.71;101554.53;4976171;28;20058;-73
2022/10/28 09:05:43;;;;;;;31.55;29.17;;;;;;;17.10;67.60;101560.00;4976800;28;20073;-71
2022/10/28 09:08:23;;;;;;;32.67;30.42;;;;;;;17.09;67.93;101561.09;4976897;28;20050;-71
2022/10/28 09:11:23;;;;;;;32.88;30.50;;;;;;;17.09;67.94;101561.91;4976826;28;20031;-72
2022/10/28 09:14:07;;;;;;;34.88;31.35;;;;;;;17.09;67.58;101555.63;4975127;28;20027;-72
2022/10/28 09:16:45;;;;;;;34.63;32.25;;;;;;;17.09;67.72;101567.38;4976744;28;20045;-72
2022/10/28 09:19:26;;;;;;;32.17;30.13;;;;;;;17.10;67.70;101562.72;4959824;28;20142;-72
2022/10/28 09:22:32;;;;;;;33.10;30.92;;;;;;;17.09;67.47;101567.38;4976254;28;20038;-72
2022/10/28 09:25:05;;;;;;;33.50;31.58;;;;;;;17.11;67.58;101579.91;4974120;28;20073;-72
2022/10/28 09:27:49;;;;;;;32.33;29.92;;;;;;;17.12;67.68;101584.31;4976188;28;20045;-72
2022/10/28 09:30:55;;;;;;;35.15;32.55;;;;;;;17.13;68.05;101566.84;4976244;28;20151;-72
2022/10/28 09:33:33;;;;;;;32.92;30.67;;;;;;;17.12;68.03;101565.19;4916739;29;20040;-72
2022/10/28 09:36:00;;;;;;;33.42;31.13;;;;;;;17.12;67.90;101576.94;4964812;28;20047;-72
2022/10/28 09:38:30;;;;;;;32.58;30.02;;;;;;;17.13;67.48;101578.56;4976037;28;20114;-73
2022/10/28 09:41:19;;;;;;;35.05;32.22;;;;;;;17.16;67.61;101569.03;4975457;28;20045;-73
2022/10/28 09:43:53;;;;;;;31.67;29.33;;;;;;;17.16;67.43;101580.78;4974951;28;20037;-75
2022/10/28 09:46:22;;;;;;;33.83;31.67;;;;;;;17.17;67.31;101585.16;4976353;28;20035;-74
2022/10/28 09:48:50;;;;;;;33.90;31.35;;;;;;;17.19;67.41;101577.53;4976239;28;20035;-72
2022/10/28 09:51:32;;;;;;;33.92;31.13;;;;;;;17.22;67.94;101576.16;4975656;28;20050;-72
2022/10/28 09:53:59;;;;;;;34.92;32.40;;;;;;;17.22;67.84;101576.97;4976226;28;20039;-72
2022/10/28 09:56:27;;;;;;;34.38;31.90;;;;;;;17.24;67.54;101566.63;4975631;28;20035;-72
2022/10/28 09:58:56;;;;;;;34.53;32.25;;;;;;;17.26;68.06;101569.91;4975495;28;20039;-72
2022/10/28 10:01:22;;;;;;;33.88;31.40;;;;;;;17.28;67.60;101566.91;4975526;28;20114;-72
2022/10/28 10:03:49;;;;;;;32.95;30.88;;;;;;;17.30;67.97;101571.00;4957531;28;20550;-72
2022/10/28 10:06:41;;;;;;;33.47;31.52;;;;;;;17.30;67.98;101565.53;4975495;28;20098;-71
2022/10/28 10:09:19;;;;;;;32.10;30.08;;;;;;;17.33;67.80;101566.09;4973414;28;20043;-72
2022/10/28 10:11:47;;;;;;;32.85;30.88;;;;;;;17.34;67.84;101559.53;4975128;28;20034;-72
2022/10/28 10:14:17;;;;;;;32.13;29.73;;;;;;;17.36;67.74;101560.94;4975257;28;20524;-72
2022/10/28 10:16:55;;;;;;;35.38;32.15;;;;;;;17.38;67.76;101558.72;4975291;28;20034;-72
2022/10/28 10:19:20;;;;;;;36.00;32.47;;;;;;;17.39;67.79;101549.47;4975383;28;20062;-71
2022/10/28 10:21:53;;;;;;;34.08;31.67;;;;;;;17.41;67.79;101547.28;4974061;28;20066;-72
2022/10/28 10:24:23;;;;;;;35.00;31.80;;;;;;;17.42;67.70;101551.66;4975445;28;20052;-72
2022/10/28 10:26:50;;;;;;;31.98;30.10;;;;;;;17.43;67.60;101549.75;4975119;28;20027;-74
2022/10/28 10:29:16;;;;;;;35.00;32.35;;;;;;;17.47;67.37;101545.41;4975047;28;20042;-72
2022/10/28 10:31:41;;;;;;;34.05;31.80;;;;;;;17.49;67.84;101548.69;4974636;28;20034;-72
2022/10/28 10:34:22;;;;;;;35.10;32.35;;;;;;;17.51;67.34;101571.91;4974336;28;20031;-73
2022/10/28 10:36:50;;;;;;;34.72;32.15;;;;;;;17.52;67.34;101559.88;4974729;28;20031;-71
2022/10/28 10:39:41;;;;;;;34.25;31.30;;;;;;;17.56;67.55;101565.59;4974994;28;20045;-71
2022/10/28 10:42:21;;;;;;;35.08;32.40;;;;;;;17.59;67.46;101564.25;4972148;28;20045;-73
2022/10/28 10:45:15;;;;;;;34.08;31.70;;;;;;;17.61;67.70;101562.06;4975220;28;20062;-71
2022/10/28 10:47:41;;;;;;;35.35;31.85;;;;;;;17.62;67.73;101556.34;4964333;28;20042;-71
2022/10/28 10:50:23;;;;;;;35.17;32.58;;;;;;;17.64;67.87;101553.31;4973530;28;20038;-71
2022/10/28 10:52:54;;;;;;;34.33;31.40;;;;;;;17.66;67.71;101551.97;4974825;28;20039;-72
2022/10/28 10:55:37;;;;;;;35.67;33.28;;;;;;;17.69;67.75;101556.91;4973773;28;20427;-72
2022/10/28 10:58:05;;;;;;;37.47;34.78;;;;;;;17.71;67.08;101543.81;4974958;28;20030;-72
2022/10/28 11:00:35;;;;;;;36.35;33.85;;;;;;;17.74;67.55;101551.47;4975278;28;20089;-72
2022/10/28 11:03:03;;;;;;;35.95;33.22;;;;;;;17.76;67.42;101551.16;4974914;28;20031;-71
2022/10/28 11:05:28;;;;;;;32.75;30.60;;;;;;;17.77;67.43;101558.28;4974469;28;20039;-72
2022/10/28 11:07:56;;;;;;;34.33;32.35;;;;;;;17.80;67.34;101551.50;4973302;28;20027;-71
2022/10/28 11:10:22;;;;;;;34.47;32.47;;;;;;;17.83;67.12;101550.94;4974628;28;20027;-71
2022/10/28 11:12:53;;;;;;;35.13;32.67;;;;;;;17.86;67.31;101550.41;4975104;28;20082;-73
2022/10/28 11:15:20;;;;;;;35.70;32.70;;;;;;;17.87;67.43;101552.88;4974531;28;20073;-72
2022/10/28 11:18:15;;;;;;;34.85;32.67;;;;;;;17.92;66.90;101557.53;4977085;28;20027;-73
2022/10/28 11:21:04;;;;;;;37.50;34.38;;;;;;;17.94;66.96;101558.91;4978625;28;20049;-73
2022/10/28 11:23:53;;;;;;;35.85;33.45;;;;;;;17.96;67.19;101569.53;4978838;28;20038;-72